createdAt,value
2022-11-30T00:00:46.124Z,45.6429
2022-11-30T00:01:44.829Z,49.7143
2022-11-30T00:02:44.989Z,48.6429
2022-11-30T00:03:44.899Z,46.1429
2022-11-30T00:04:48.703Z,47.3571
2022-11-30T00:05:48.542Z,45.9286
2022-11-30T00:06:04.425Z,45.7143
2022-11-30T00:07:04.456Z,48.5
2022-11-30T00:08:04.497Z,48.6429
2022-11-30T00:09:04.550Z,47.1429
2022-11-30T00:10:04.558Z,50.2143
2022-11-30T00:11:04.594Z,48.8571
2022-11-30T00:12:04.623Z,46.5
2022-11-30T00:13:04.654Z,47.9286
2022-11-30T00:14:04.710Z,46.9286
2022-11-30T00:15:04.729Z,47.3571
2022-11-30T00:16:04.766Z,45.3571
2022-11-30T00:17:04.864Z,47.5
2022-11-30T00:17:55.585Z,48.6429
2022-11-30T00:18:55.640Z,48.7143
2022-11-30T00:19:55.641Z,47.7143
2022-11-30T00:20:55.681Z,46.6429
2022-11-30T00:21:55.723Z,48.9286
2022-11-30T00:22:55.771Z,49.2143
2022-11-30T00:23:55.802Z,46.3571
2022-11-30T00:24:55.845Z,46
2022-11-30T00:25:55.883Z,48
2022-11-30T00:26:55.905Z,48.6429
2022-11-30T00:27:55.935Z,49.2143
2022-11-30T00:28:55.976Z,54.2143
2022-11-30T00:29:56.002Z,57.7143
2022-11-30T00:30:56.051Z,57.2143
2022-11-30T00:31:56.067Z,55.9286
2022-11-30T00:32:56.099Z,54.8571
2022-11-30T00:33:56.124Z,51.5
2022-11-30T00:34:56.154Z,55.3571
2022-11-30T00:35:56.203Z,51
2022-11-30T00:36:56.236Z,53.6429
2022-11-30T00:37:56.264Z,52.8571
2022-11-30T00:38:56.295Z,49.4286
2022-11-30T00:39:56.337Z,50.9286
2022-11-30T00:40:56.364Z,49.6429
2022-11-30T00:41:56.401Z,50.4286
2022-11-30T00:42:56.429Z,52.3571
2022-11-30T00:43:56.467Z,51.9286
2022-11-30T00:44:56.490Z,53.7143
2022-11-30T00:45:56.625Z,51.3571
2022-11-30T00:46:56.552Z,48.9286
2022-11-30T00:47:56.582Z,47.3571
2022-11-30T00:48:56.604Z,50.3571
2022-11-30T00:49:56.633Z,49.2143
2022-11-30T00:50:56.664Z,48.2143
2022-11-30T00:51:56.700Z,47
2022-11-30T00:52:56.725Z,48.8571
2022-11-30T00:53:56.753Z,49.7143
2022-11-30T00:54:56.787Z,48.6429
2022-11-30T00:55:56.821Z,48.5
2022-11-30T00:56:56.843Z,50.2143
2022-11-30T00:57:56.876Z,49.5
2022-11-30T00:58:56.908Z,51.8571
2022-11-30T00:59:56.937Z,49.8571
2022-11-30T01:00:57.040Z,50.6429
2022-11-30T01:01:56.988Z,49.4286
2022-11-30T01:02:57.020Z,49.7143
2022-11-30T01:03:57.046Z,46.3571
2022-11-30T01:04:57.080Z,50.9286
2022-11-30T01:05:57.115Z,48.6429
2022-11-30T01:06:57.142Z,49.8571
2022-11-30T01:07:57.238Z,50.5
2022-11-30T01:08:57.192Z,49.6429
2022-11-30T01:09:57.221Z,50.1429
2022-11-30T01:10:57.241Z,49.8571
2022-11-30T01:11:57.282Z,50.3571
2022-11-30T01:12:57.317Z,49.9286
2022-11-30T01:13:57.350Z,51.1429
2022-11-30T01:14:57.385Z,51.4286
2022-11-30T01:15:57.469Z,48.8571
2022-11-30T01:16:57.448Z,51.2143
2022-11-30T01:17:57.472Z,51.4286
2022-11-30T01:18:57.513Z,50.9286
2022-11-30T01:19:57.539Z,49.3571
2022-11-30T01:20:57.567Z,48.9286
2022-11-30T01:21:57.600Z,49.7143
2022-11-30T01:22:57.642Z,48.4286
2022-11-30T01:23:57.657Z,45.9286
2022-11-30T01:24:57.689Z,52
2022-11-30T01:25:57.730Z,49
2022-11-30T01:26:57.764Z,49.8571
2022-11-30T01:27:57.806Z,47.4286
2022-11-30T01:28:57.861Z,51.5
2022-11-30T01:29:57.865Z,50.4286
2022-11-30T01:30:30.490Z,49.6429
2022-11-30T01:31:30.419Z,48.2143
2022-11-30T01:32:30.457Z,53.3571
2022-11-30T01:33:30.502Z,52.1429
2022-11-30T01:34:30.523Z,49
2022-11-30T01:35:30.560Z,50.3571
2022-11-30T01:36:30.588Z,51.8571
2022-11-30T01:37:30.625Z,49.8571
2022-11-30T01:38:30.677Z,51.9286
2022-11-30T01:39:30.697Z,50.2143
2022-11-30T01:40:30.729Z,51.5
2022-11-30T01:41:30.764Z,49.2143
2022-11-30T01:42:30.783Z,52.3571
2022-11-30T01:43:30.834Z,52
2022-11-30T01:44:30.845Z,48.9286
2022-11-30T01:45:30.889Z,47.9286
2022-11-30T01:46:30.981Z,49.3571
2022-11-30T01:47:30.951Z,49.8571
2022-11-30T01:48:30.983Z,49.8571
2022-11-30T01:49:31.026Z,51.3571
2022-11-30T01:50:31.056Z,52.2143
2022-11-30T01:51:31.113Z,48.9286
2022-11-30T01:52:31.126Z,51.1429
2022-11-30T01:53:31.184Z,52.4286
2022-11-30T01:54:31.211Z,50.3571
2022-11-30T01:55:31.218Z,50.7143
2022-11-30T01:56:31.278Z,51.7143
2022-11-30T01:57:31.291Z,52.8571
2022-11-30T01:58:31.342Z,50.5
2022-11-30T01:59:31.375Z,49.5
2022-11-30T02:00:31.380Z,53.1429
2022-11-30T02:01:31.444Z,50.3571
2022-11-30T02:02:31.449Z,52
2022-11-30T02:03:31.492Z,52.4286
2022-11-30T02:04:31.494Z,48.5
2022-11-30T02:05:31.524Z,53.2143
2022-11-30T02:06:31.546Z,49
2022-11-30T02:07:31.758Z,51.7143
2022-11-30T02:08:31.965Z,53
2022-11-30T02:09:31.648Z,51.1429
2022-11-30T02:10:31.716Z,51.4286
2022-11-30T02:11:31.721Z,51.4286
2022-11-30T02:12:31.748Z,48.9286
2022-11-30T02:13:31.775Z,52.7143
2022-11-30T02:14:31.827Z,51
2022-11-30T02:15:31.892Z,50.6429
2022-11-30T02:16:31.878Z,49.5
2022-11-30T02:17:31.911Z,50.9286
2022-11-30T02:18:32.057Z,51
2022-11-30T02:19:31.961Z,50
2022-11-30T02:20:31.997Z,53.7143
2022-11-30T02:21:32.035Z,51.2143
2022-11-30T02:22:32.072Z,52.8571
2022-11-30T02:23:35.389Z,53.6429
2022-11-30T02:24:32.135Z,49.6429
2022-11-30T02:25:32.175Z,50.9286
2022-11-30T02:26:32.228Z,50.2143
2022-11-30T02:27:32.248Z,54.4286
2022-11-30T02:28:32.272Z,52.4286
2022-11-30T02:29:32.326Z,51.3571
2022-11-30T02:30:32.333Z,52.7143
2022-11-30T02:31:32.381Z,51.8571
2022-11-30T02:32:32.437Z,50
2022-11-30T02:33:32.436Z,51
2022-11-30T02:34:32.490Z,54.5
2022-11-30T02:35:32.500Z,51.9286
2022-11-30T02:36:32.530Z,52.2143
2022-11-30T02:37:32.580Z,50.4286
2022-11-30T02:38:32.597Z,52.4286
2022-11-30T02:39:32.647Z,49.3571
2022-11-30T02:40:32.655Z,51.7143
2022-11-30T02:41:37.697Z,53.2143
2022-11-30T02:42:32.733Z,51.9286
2022-11-30T02:43:32.750Z,51.5
2022-11-30T02:44:32.812Z,52.6429
2022-11-30T02:45:32.817Z,50.7143
2022-11-30T02:46:32.884Z,54.1429
2022-11-30T02:47:32.878Z,50
2022-11-30T02:48:32.912Z,52.6429
2022-11-30T02:49:32.960Z,55
2022-11-30T02:50:32.980Z,51.5
2022-11-30T02:51:33.002Z,53
2022-11-30T02:52:33.063Z,53.6429
2022-11-30T02:53:33.064Z,56
2022-11-30T02:54:33.119Z,53.5
2022-11-30T02:55:33.127Z,54.2143
2022-11-30T02:56:33.148Z,53.1429
2022-11-30T02:57:33.180Z,55.1429
2022-11-30T02:58:33.240Z,51.1429
2022-11-30T02:59:33.252Z,54.1429
2022-11-30T03:00:33.286Z,50.7143
2022-11-30T03:01:33.401Z,52.7143
2022-11-30T03:02:33.406Z,53
2022-11-30T03:03:33.399Z,54
2022-11-30T03:04:33.414Z,53.1429
2022-11-30T03:05:33.462Z,50
2022-11-30T03:06:33.484Z,53.2143
2022-11-30T03:07:33.585Z,52.6429
2022-11-30T03:08:33.538Z,54.2143
2022-11-30T03:09:33.562Z,53.9286
2022-11-30T03:10:33.600Z,56.6429
2022-11-30T03:11:33.633Z,52
2022-11-30T03:12:33.663Z,56
2022-11-30T03:13:33.709Z,53
2022-11-30T03:14:33.715Z,50.8571
2022-11-30T03:15:33.837Z,51.6429
2022-11-30T03:16:33.772Z,52.7143
2022-11-30T03:17:33.807Z,51.5
2022-11-30T03:18:33.869Z,52.9286
2022-11-30T03:19:33.910Z,54.3571
2022-11-30T03:20:33.916Z,54.4286
2022-11-30T03:21:33.939Z,55
2022-11-30T03:22:34.002Z,51.8571
2022-11-30T03:23:34.029Z,54.6429
2022-11-30T03:24:34.029Z,54
2022-11-30T03:25:34.069Z,51.3571
2022-11-30T03:26:34.086Z,53.3571
2022-11-30T03:27:34.127Z,55.6429
2022-11-30T03:28:34.187Z,53.3571
2022-11-30T03:29:34.211Z,51.4286
2022-11-30T03:30:34.221Z,55.1429
2022-11-30T03:31:34.303Z,53.7143
2022-11-30T03:32:34.285Z,53.5
2022-11-30T03:33:34.307Z,51.8571
2022-11-30T03:34:34.357Z,54.1429
2022-11-30T03:35:34.362Z,53.9286
2022-11-30T03:36:34.404Z,52.8571
2022-11-30T03:37:34.461Z,52.6429
2022-11-30T03:38:34.472Z,50.9286
2022-11-30T03:39:34.505Z,54
2022-11-30T03:40:34.533Z,53.9286
2022-11-30T03:41:34.572Z,52.1429
2022-11-30T03:42:34.622Z,52.6429
2022-11-30T03:43:34.648Z,53.5
2022-11-30T03:44:34.663Z,53.4286
2022-11-30T03:45:34.699Z,53
2022-11-30T03:46:34.781Z,52.4286
2022-11-30T03:47:34.760Z,53.1429
2022-11-30T03:48:34.806Z,50.9286
2022-11-30T03:49:34.820Z,48.5
2022-11-30T03:50:34.853Z,53.2143
2022-11-30T03:51:34.882Z,51.9286
2022-11-30T03:52:34.930Z,52
2022-11-30T03:53:34.968Z,49.6429
2022-11-30T03:54:34.974Z,53.5
2022-11-30T03:55:35.006Z,51.3571
2022-11-30T03:56:35.044Z,49.8571
2022-11-30T03:57:35.073Z,50.8571
2022-11-30T03:58:35.125Z,52.9286
2022-11-30T03:59:35.134Z,52.8571
2022-11-30T04:00:35.178Z,52.9286
2022-11-30T04:01:35.243Z,52.7143
2022-11-30T04:02:37.952Z,53.4286
2022-11-30T04:03:35.285Z,52
2022-11-30T04:04:35.299Z,54.8571
2022-11-30T04:05:35.329Z,51.5
2022-11-30T04:06:35.381Z,53
2022-11-30T04:07:35.470Z,52.5
2022-11-30T04:08:35.433Z,51.6429
2022-11-30T04:09:35.447Z,50.5
2022-11-30T04:10:35.475Z,52.5
2022-11-30T04:11:35.510Z,53.9286
2022-11-30T04:12:35.570Z,51.9286
2022-11-30T04:13:35.574Z,51.5
2022-11-30T04:14:35.599Z,52.9286
2022-11-30T04:15:35.650Z,51.2143
2022-11-30T04:16:35.675Z,52.4286
2022-11-30T04:17:35.734Z,47.9286
2022-11-30T04:18:35.746Z,51.7143
2022-11-30T04:19:35.778Z,49.8571
2022-11-30T04:20:40.202Z,49.1429
2022-11-30T04:21:35.848Z,51.4286
2022-11-30T04:22:35.902Z,53
2022-11-30T04:23:35.918Z,50.6429
2022-11-30T04:24:35.936Z,51.7143
2022-11-30T04:25:35.961Z,51.4286
2022-11-30T04:26:36.020Z,48.5
2022-11-30T04:27:36.031Z,52.5
2022-11-30T04:28:36.070Z,52.5
2022-11-30T04:29:36.093Z,51.5
2022-11-30T04:30:36.121Z,51.9286
2022-11-30T04:31:36.212Z,50.7143
2022-11-30T04:32:36.198Z,53
2022-11-30T04:33:36.254Z,50.8571
2022-11-30T04:34:36.265Z,52.2143
2022-11-30T04:35:36.297Z,52.4286
2022-11-30T04:36:36.330Z,48.5
2022-11-30T04:37:36.385Z,52.4286
2022-11-30T04:38:36.412Z,52
2022-11-30T04:39:36.421Z,52.7143
2022-11-30T04:40:36.458Z,51.9286
2022-11-30T04:41:36.496Z,52.3571
2022-11-30T04:42:36.527Z,53.9286
2022-11-30T04:43:36.582Z,48.9286
2022-11-30T04:44:36.593Z,51.4286
2022-11-30T04:45:36.620Z,50.6429
2022-11-30T04:46:36.710Z,55
2022-11-30T04:47:36.683Z,52.4286
2022-11-30T04:48:36.703Z,51.7143
2022-11-30T04:49:36.750Z,51.4286
2022-11-30T04:50:36.781Z,54.2143
2022-11-30T04:51:36.818Z,49
2022-11-30T04:52:36.834Z,49.8571
2022-11-30T04:53:36.896Z,52.3571
2022-11-30T04:54:36.906Z,51.2143
2022-11-30T04:55:36.940Z,48.9286
2022-11-30T04:56:36.973Z,53.9286
2022-11-30T04:57:37.027Z,50.4286
2022-11-30T04:58:37.058Z,51.8571
2022-11-30T04:59:37.094Z,51.3571
2022-11-30T05:00:37.099Z,51.5
2022-11-30T05:01:37.197Z,51.6429
2022-11-30T05:02:37.160Z,52.1429
2022-11-30T05:03:37.217Z,50.5
2022-11-30T05:04:37.285Z,51.2143
2022-11-30T05:05:37.258Z,51.5
2022-11-30T05:06:37.306Z,50
2022-11-30T05:07:37.410Z,52.5
2022-11-30T05:08:37.357Z,49.9286
2022-11-30T05:09:37.403Z,50.8571
2022-11-30T05:10:37.413Z,46.6429
2022-11-30T05:11:37.446Z,48.1429
2022-11-30T05:12:37.490Z,50.7143
2022-11-30T05:13:37.551Z,50.8571
2022-11-30T05:14:37.563Z,50.9286
2022-11-30T05:15:37.598Z,49.1429
2022-11-30T05:16:37.658Z,49
2022-11-30T05:17:37.683Z,49.9286
2022-11-30T05:18:37.718Z,48.9286
2022-11-30T05:19:37.761Z,53
2022-11-30T05:20:37.774Z,49.1429
2022-11-30T05:21:41.330Z,48.3571
2022-11-30T05:22:37.842Z,50.4286
2022-11-30T05:23:37.873Z,47.9286
2022-11-30T05:24:37.926Z,51.4286
2022-11-30T05:25:37.943Z,51.5
2022-11-30T05:26:37.971Z,51.1429
2022-11-30T05:27:37.993Z,53.1429
2022-11-30T05:28:38.045Z,51
2022-11-30T05:29:38.056Z,52.1429
2022-11-30T05:30:38.082Z,49.1429
2022-11-30T05:31:38.184Z,49.5
2022-11-30T05:32:38.152Z,52.3571
2022-11-30T05:33:38.201Z,50.7143
2022-11-30T05:34:50.072Z,49.4286
2022-11-30T05:35:38.240Z,49.7143
2022-11-30T05:36:38.268Z,50.1429
2022-11-30T05:37:38.296Z,50.3571
2022-11-30T05:38:38.323Z,51.8571
2022-11-30T05:39:38.388Z,49.9286
2022-11-30T05:40:38.402Z,49.8571
2022-11-30T05:41:38.437Z,50.2143
2022-11-30T05:42:38.466Z,52.6429
2022-11-30T05:43:38.500Z,52.2143
2022-11-30T05:44:38.545Z,51.8571
2022-11-30T05:45:38.549Z,52.6429
2022-11-30T05:46:41.083Z,51.1429
2022-11-30T05:47:38.611Z,51.6429
2022-11-30T05:48:38.679Z,50.3571
2022-11-30T05:49:38.698Z,49.6429
2022-11-30T05:50:38.743Z,51.2143
2022-11-30T05:51:38.748Z,49.7143
2022-11-30T05:52:38.775Z,50.5
2022-11-30T05:53:38.813Z,49.5
2022-11-30T05:54:38.868Z,50.8571
2022-11-30T05:55:38.871Z,48.8571
2022-11-30T05:56:38.901Z,49.8571
2022-11-30T05:57:38.940Z,50.2143
2022-11-30T05:58:38.976Z,50.4286
2022-11-30T05:59:38.995Z,49.7143
2022-11-30T06:00:39.033Z,49.8571
2022-11-30T06:01:39.231Z,48.7143
2022-11-30T06:02:39.287Z,50.8571
2022-11-30T06:03:39.120Z,52.2143
2022-11-30T06:04:39.148Z,48.7143
2022-11-30T06:05:39.188Z,49.3571
2022-11-30T06:06:39.227Z,49.7143
2022-11-30T06:07:39.306Z,50
2022-11-30T06:08:39.288Z,52.2143
2022-11-30T06:09:39.330Z,50.1429
2022-11-30T06:10:39.363Z,48.8571
2022-11-30T06:11:39.387Z,51.9286
2022-11-30T06:12:39.420Z,50.2143
2022-11-30T06:13:39.451Z,53.4286
2022-11-30T06:14:39.476Z,48.7143
2022-11-30T06:15:39.507Z,49.8571
2022-11-30T06:16:39.632Z,50.9286
2022-11-30T06:17:39.570Z,50
2022-11-30T06:18:39.604Z,53.3571
2022-11-30T06:19:39.634Z,51.9286
2022-11-30T06:20:39.685Z,50
2022-11-30T06:21:39.694Z,50.5
2022-11-30T06:22:39.722Z,49
2022-11-30T06:23:39.752Z,50.9286
2022-11-30T06:24:39.792Z,48.5
2022-11-30T06:25:39.796Z,53.4286
2022-11-30T06:26:39.830Z,49.2143
2022-11-30T06:27:39.861Z,49.7143
2022-11-30T06:28:43.062Z,49.9286
2022-11-30T06:29:39.921Z,49.5
2022-11-30T06:30:39.951Z,49.3571
2022-11-30T06:31:39.991Z,49.3571
2022-11-30T06:32:40.010Z,52
2022-11-30T06:33:40.047Z,47.8571
2022-11-30T06:34:40.088Z,50.1429
2022-11-30T06:35:40.117Z,51.4286
2022-11-30T06:36:40.142Z,49.2143
2022-11-30T06:37:40.172Z,50.4286
2022-11-30T06:38:40.197Z,47.8571
2022-11-30T06:40:04.931Z,51.6429
2022-11-30T06:40:40.285Z,48.6429
2022-11-30T06:41:40.276Z,47.4286
2022-11-30T06:42:40.313Z,52.3571
2022-11-30T06:43:40.345Z,50.2143
2022-11-30T06:44:40.382Z,49.2143
2022-11-30T06:45:40.436Z,54.2143
2022-11-30T06:46:40.443Z,50.2143
2022-11-30T06:47:40.472Z,50.1429
2022-11-30T06:48:40.507Z,48
2022-11-30T06:49:40.539Z,49
2022-11-30T06:50:43.254Z,49.8571
2022-11-30T06:51:40.601Z,50.7143
2022-11-30T06:52:40.634Z,48.7143
2022-11-30T06:53:40.665Z,49.7143
2022-11-30T06:54:40.702Z,51.1429
2022-11-30T06:55:40.725Z,50.5
2022-11-30T06:56:40.785Z,47.3571
2022-11-30T06:57:40.778Z,50.8571
2022-11-30T06:58:40.807Z,48.9286
2022-11-30T06:59:40.837Z,49.9286
2022-11-30T07:00:40.900Z,50.7143
2022-11-30T07:01:40.918Z,48.5
2022-11-30T07:02:40.927Z,49.3571
2022-11-30T07:03:41.135Z,48.9286
2022-11-30T07:04:40.985Z,48.2143
2022-11-30T07:05:41.038Z,49.7143
2022-11-30T07:06:41.044Z,50.6429
2022-11-30T07:07:41.188Z,51.5
2022-11-30T07:08:41.113Z,50.9286
2022-11-30T07:09:41.138Z,49.2143
2022-11-30T07:10:41.165Z,49.2143
2022-11-30T07:11:41.200Z,50
2022-11-30T07:12:41.234Z,49.6429
2022-11-30T07:13:41.265Z,49.3571
2022-11-30T07:14:41.303Z,50.8571
2022-11-30T07:15:41.334Z,48
2022-11-30T07:16:41.410Z,48.2143
2022-11-30T07:17:41.392Z,48.5
2022-11-30T07:18:41.426Z,48.9286
2022-11-30T07:19:41.459Z,48.4286
2022-11-30T07:20:41.477Z,50.1429
2022-11-30T07:21:41.519Z,49.4286
2022-11-30T07:22:41.552Z,48.1429
2022-11-30T07:23:41.577Z,49.1429
2022-11-30T07:24:41.606Z,52
2022-11-30T07:25:41.630Z,50
2022-11-30T07:26:41.674Z,47.9286
2022-11-30T07:27:41.704Z,48.7143
2022-11-30T07:28:41.734Z,50.2143
2022-11-30T07:29:41.779Z,51.2143
2022-11-30T07:30:41.810Z,50.4286
2022-11-30T07:31:41.865Z,48.7143
2022-11-30T07:32:41.881Z,48.2143
2022-11-30T07:33:41.913Z,48.9286
2022-11-30T07:34:41.951Z,48.4286
2022-11-30T07:35:41.977Z,48.5
2022-11-30T07:36:42.012Z,46.9286
2022-11-30T07:37:42.033Z,52.3571
2022-11-30T07:38:42.056Z,48.5
2022-11-30T07:39:42.089Z,53.1429
2022-11-30T07:40:42.138Z,50.2143
2022-11-30T07:41:42.155Z,50.2143
2022-11-30T07:42:42.186Z,49.6429
2022-11-30T07:43:42.221Z,51.9286
2022-11-30T07:44:42.242Z,47.3571
2022-11-30T07:45:42.378Z,46.7143
2022-11-30T07:46:42.305Z,48.8571
2022-11-30T07:47:42.333Z,48.9286
2022-11-30T07:48:42.357Z,48.4286
2022-11-30T07:49:42.393Z,50.7143
2022-11-30T07:50:42.421Z,48
2022-11-30T07:51:42.463Z,49
2022-11-30T07:52:42.494Z,47.6429
2022-11-30T07:53:42.521Z,48.8571
2022-11-30T07:54:42.577Z,47.2143
2022-11-30T07:55:42.587Z,48
2022-11-30T07:56:42.620Z,49.7143
2022-11-30T07:57:42.652Z,48
2022-11-30T07:58:42.703Z,47.9286
2022-11-30T07:59:42.709Z,50.1429
2022-11-30T08:00:42.788Z,48.2143
2022-11-30T08:01:42.915Z,49.6429
2022-11-30T08:02:42.822Z,48.8571
2022-11-30T08:03:42.832Z,48.2143
2022-11-30T08:04:42.923Z,44.8571
2022-11-30T08:05:42.883Z,46.7143
2022-11-30T08:06:42.909Z,46.9286
2022-11-30T08:07:42.974Z,47.8571
2022-11-30T08:08:42.961Z,49.2143
2022-11-30T08:09:43.001Z,48.9286
2022-11-30T08:10:43.032Z,46.7143
2022-11-30T08:11:43.072Z,45.6429
2022-11-30T08:12:43.106Z,48
2022-11-30T08:13:43.137Z,48.8571
2022-11-30T08:15:17.622Z,47.3571
2022-11-30T08:15:43.194Z,47.3571
2022-11-30T08:16:43.285Z,45.3571
2022-11-30T08:17:43.252Z,45.4286
2022-11-30T08:18:43.316Z,43.8571
2022-11-30T08:19:43.325Z,45.2143
2022-11-30T08:20:48.423Z,46.7143
2022-11-30T08:21:43.385Z,44
2022-11-30T08:22:43.410Z,45.5
2022-11-30T08:23:43.602Z,46.1429
2022-11-30T08:24:43.465Z,44.9286
2022-11-30T08:25:43.502Z,44.8571
2022-11-30T08:26:43.529Z,45.5
2022-11-30T08:27:43.570Z,45.5
2022-11-30T08:28:43.599Z,46.5
2022-11-30T08:29:43.620Z,46.3571
2022-11-30T08:30:43.754Z,44
2022-11-30T08:31:43.692Z,44.8571
2022-11-30T08:32:43.725Z,44.2143
2022-11-30T08:33:43.765Z,46
2022-11-30T08:34:43.780Z,45.2143
2022-11-30T08:35:43.812Z,45.3571
2022-11-30T08:36:48.796Z,42.8571
2022-11-30T08:37:43.887Z,45
2022-11-30T08:38:43.922Z,45.3571
2022-11-30T08:39:43.950Z,43.7143
2022-11-30T08:40:43.976Z,44.1429
2022-11-30T08:41:44.015Z,45.8571
2022-11-30T08:42:44.049Z,46
2022-11-30T08:43:44.082Z,44.3571
2022-11-30T08:44:44.106Z,44.3571
2022-11-30T08:45:44.191Z,44.7143
2022-11-30T08:46:52.321Z,44.7143
2022-11-30T08:47:44.199Z,42.6429
2022-11-30T08:48:44.236Z,43.1429
2022-11-30T08:49:44.256Z,41.3571
2022-11-30T08:50:44.279Z,42.1429
2022-11-30T08:52:15.514Z,43.4286
2022-11-30T08:52:44.347Z,45.6429
2022-11-30T08:53:44.379Z,43.7143
2022-11-30T08:54:44.400Z,40.8571
2022-11-30T08:55:44.432Z,42.3571
2022-11-30T08:56:44.465Z,41.6429
2022-11-30T08:57:44.494Z,43.4286
2022-11-30T08:58:44.527Z,41.7143
2022-11-30T08:59:44.559Z,45.6429
2022-11-30T09:00:44.586Z,44.5
2022-11-30T09:01:44.621Z,44
2022-11-30T09:02:44.736Z,42.8571
2022-11-30T09:03:44.694Z,40.8571
2022-11-30T09:04:44.727Z,42.4286
2022-11-30T09:05:44.761Z,42.5
2022-11-30T09:06:44.791Z,42.8571
2022-11-30T09:07:44.867Z,39.9286
2022-11-30T09:08:44.936Z,41.4286
2022-11-30T09:09:44.878Z,43.3571
2022-11-30T09:10:44.906Z,42.9286
2022-11-30T09:11:44.937Z,45.4286
2022-11-30T09:12:44.967Z,44.6429
2022-11-30T09:13:44.995Z,43.3571
2022-11-30T09:14:45.236Z,44.4286
2022-11-30T09:15:45.117Z,42.8571
2022-11-30T09:16:45.114Z,42.9286
2022-11-30T09:17:45.110Z,41.4286
2022-11-30T09:18:45.156Z,44
2022-11-30T09:19:45.176Z,40.2143
2022-11-30T09:20:45.196Z,41.3571
2022-11-30T09:21:51.187Z,40.6429
2022-11-30T09:22:45.258Z,40.2143
2022-11-30T09:23:45.289Z,39.9286
2022-11-30T09:24:45.991Z,40.6429
2022-11-30T09:25:45.347Z,42.3571
2022-11-30T09:26:45.370Z,39.4286
2022-11-30T09:27:45.403Z,41.8571
2022-11-30T09:28:45.428Z,40
2022-11-30T09:29:45.466Z,39.7143
2022-11-30T09:30:45.529Z,42
2022-11-30T09:31:45.532Z,40.1429
2022-11-30T09:32:45.562Z,39.8571
2022-11-30T09:33:45.635Z,38.5
2022-11-30T09:34:46.361Z,41.2143
2022-11-30T09:35:45.658Z,40.9286
2022-11-30T09:36:45.692Z,40.8571
2022-11-30T09:37:45.731Z,39.4286
2022-11-30T09:38:45.761Z,40
2022-11-30T09:39:45.787Z,40.1429
2022-11-30T09:40:45.825Z,40
2022-11-30T09:41:45.837Z,40.9286
2022-11-30T09:42:45.877Z,42.6429
2022-11-30T09:43:45.895Z,39.2143
2022-11-30T09:44:46.374Z,39.2143
2022-11-30T09:45:46.033Z,40.5
2022-11-30T09:46:45.998Z,40
2022-11-30T09:47:46.031Z,41.4286
2022-11-30T09:48:46.060Z,39.9286
2022-11-30T09:49:46.095Z,38.8571
2022-11-30T09:50:46.129Z,39
2022-11-30T09:51:46.164Z,39.2143
2022-11-30T09:52:46.191Z,39.7143
2022-11-30T09:53:46.221Z,38.9286
2022-11-30T09:54:46.529Z,40.6429
2022-11-30T09:55:46.275Z,38.5
2022-11-30T09:56:46.309Z,41.6429
2022-11-30T09:57:46.343Z,40.2143
2022-11-30T09:58:46.364Z,37.6429
2022-11-30T09:59:46.397Z,39.6429
2022-11-30T10:00:46.421Z,37.8571
2022-11-30T10:01:48.749Z,40.9286
2022-11-30T10:02:46.685Z,39.3571
2022-11-30T10:03:46.509Z,38.8571
2022-11-30T10:04:47.011Z,38.3571
2022-11-30T10:05:46.577Z,37
2022-11-30T10:06:46.604Z,38.7143
2022-11-30T10:07:46.727Z,39.9286
2022-11-30T10:08:50.721Z,38
2022-11-30T10:10:02.944Z,40.2143
2022-11-30T10:10:46.755Z,36
2022-11-30T10:11:46.831Z,38.1429
2022-11-30T10:12:46.816Z,39.2143
2022-11-30T10:13:46.844Z,39.5
2022-11-30T10:14:47.279Z,38
2022-11-30T10:15:46.969Z,37.4286
2022-11-30T10:16:46.938Z,37.2143
2022-11-30T10:17:46.973Z,37
2022-11-30T10:18:46.999Z,40.1429
2022-11-30T10:19:47.033Z,37.7143
2022-11-30T10:20:47.063Z,40.7143
2022-11-30T10:21:47.091Z,37.6429
2022-11-30T10:22:47.130Z,39.2143
2022-11-30T10:23:47.154Z,39
2022-11-30T10:24:47.305Z,37.4286
2022-11-30T10:25:47.202Z,37.8571
2022-11-30T10:26:47.238Z,37.7143
2022-11-30T10:27:47.269Z,39.5
2022-11-30T10:28:48.195Z,39.3571
2022-11-30T10:29:47.360Z,39.1429
2022-11-30T10:30:47.422Z,39.6429
2022-11-30T10:31:47.384Z,40.7143
2022-11-30T10:32:47.423Z,39.2143
2022-11-30T10:33:47.455Z,39.1429
2022-11-30T10:34:47.628Z,39
2022-11-30T10:35:47.506Z,38.7143
2022-11-30T10:36:47.542Z,39.3571
2022-11-30T10:37:47.570Z,38
2022-11-30T10:38:47.606Z,39.3571
2022-11-30T10:39:47.645Z,39.3571
2022-11-30T10:40:47.674Z,40
2022-11-30T10:41:47.708Z,39.2143
2022-11-30T10:42:47.748Z,40.2143
2022-11-30T10:43:47.783Z,39.5
2022-11-30T10:44:48.134Z,40.8571
2022-11-30T10:45:47.847Z,38.4286
2022-11-30T10:46:47.952Z,39.4286
2022-11-30T10:47:47.916Z,39.3571
2022-11-30T10:48:47.950Z,40.3571
2022-11-30T10:49:47.982Z,40.6429
2022-11-30T10:50:48.014Z,39.3571
2022-11-30T10:51:48.045Z,39.3571
2022-11-30T10:52:48.082Z,40.4286
2022-11-30T10:53:48.130Z,38.7143
2022-11-30T10:54:48.593Z,38.9286
2022-11-30T10:55:48.174Z,39.1429
2022-11-30T10:56:48.231Z,38
2022-11-30T10:57:48.240Z,37.3571
2022-11-30T10:58:48.275Z,36
2022-11-30T10:59:48.660Z,39.2143
2022-11-30T11:00:48.337Z,37.4286
2022-11-30T11:01:48.414Z,39.1429
2022-11-30T11:02:48.457Z,41.2143
2022-11-30T11:03:48.485Z,39.1429
2022-11-30T11:04:48.461Z,43.2143
2022-11-30T11:05:48.491Z,41.5
2022-11-30T11:06:48.597Z,43.1429
2022-11-30T11:07:48.637Z,41.4286
2022-11-30T11:08:48.594Z,41.1429
2022-11-30T11:09:49.073Z,40.4286
2022-11-30T11:10:48.658Z,41.3571
2022-11-30T11:11:48.679Z,39.9286
2022-11-30T11:12:48.706Z,42.5
2022-11-30T11:13:48.735Z,41.4286
2022-11-30T11:14:48.765Z,42
2022-11-30T11:15:48.898Z,39.7143
2022-11-30T11:16:48.833Z,42.7143
2022-11-30T11:17:48.888Z,39.2143
2022-11-30T11:18:48.900Z,41.5
2022-11-30T11:19:49.239Z,41.3571
2022-11-30T11:20:51.757Z,42.8571
2022-11-30T11:21:49.003Z,42.8571
2022-11-30T11:22:49.054Z,41.6429
2022-11-30T11:23:49.059Z,45.2143
2022-11-30T11:24:49.093Z,41.4286
2022-11-30T11:25:49.149Z,41.7143
2022-11-30T11:26:49.157Z,42.7143
2022-11-30T11:27:49.189Z,43.3571
2022-11-30T11:28:49.220Z,42.7143
2022-11-30T11:29:49.645Z,44.1429
2022-11-30T11:30:49.338Z,41.8571
2022-11-30T11:31:49.328Z,42.6429
2022-11-30T11:32:49.353Z,42.6429
2022-11-30T11:33:49.390Z,41.9286
2022-11-30T11:34:51.303Z,40.2143
2022-11-30T11:35:49.474Z,40.1429
2022-11-30T11:36:49.478Z,42.3571
2022-11-30T11:37:49.516Z,41.5
2022-11-30T11:38:49.551Z,41.9286
2022-11-30T11:39:49.767Z,43.9286
2022-11-30T11:40:49.614Z,43.2143
2022-11-30T11:41:49.648Z,43
2022-11-30T11:42:49.697Z,41.8571
2022-11-30T11:43:49.711Z,41.8571
2022-11-30T11:44:49.750Z,42.3571
2022-11-30T11:45:49.779Z,43.5
2022-11-30T11:46:49.868Z,41.1429
2022-11-30T11:47:49.839Z,42.2143
2022-11-30T11:48:49.871Z,42.9286
2022-11-30T11:49:50.048Z,42.8571
2022-11-30T11:51:06.106Z,42.7143
2022-11-30T11:51:49.971Z,43
2022-11-30T11:52:50.006Z,41.1429
2022-11-30T11:53:53.550Z,42.7143
2022-11-30T11:54:50.067Z,43.3571
2022-11-30T11:55:50.107Z,41.4286
2022-11-30T11:56:50.136Z,45.4286
2022-11-30T11:57:50.162Z,42.8571
2022-11-30T11:58:50.220Z,42.6429
2022-11-30T11:59:50.470Z,42.3571
2022-11-30T12:00:50.265Z,41.8571
2022-11-30T12:01:50.316Z,45.7143
2022-11-30T12:02:50.430Z,43.7143
2022-11-30T12:03:50.445Z,42.3571
2022-11-30T12:04:50.382Z,41.6429
2022-11-30T12:05:50.412Z,43.6429
2022-11-30T12:06:50.439Z,43.7143
2022-11-30T12:07:50.566Z,41.8571
2022-11-30T12:08:50.519Z,42.5
2022-11-30T12:09:50.534Z,41.3571
2022-11-30T12:10:52.467Z,41
2022-11-30T12:11:50.604Z,43
2022-11-30T12:12:54.662Z,43.4286
2022-11-30T12:13:50.661Z,44.8571
2022-11-30T12:14:50.685Z,44.9286
2022-11-30T12:15:50.788Z,43.5
2022-11-30T12:16:50.747Z,44
2022-11-30T12:17:50.774Z,43.7143
2022-11-30T12:18:50.801Z,44.9286
2022-11-30T12:19:50.836Z,46.6429
2022-11-30T12:20:50.870Z,45.8571
2022-11-30T12:21:50.901Z,43.8571
2022-11-30T12:22:50.932Z,42
2022-11-30T12:23:50.968Z,43.9286
2022-11-30T12:24:51.000Z,45.9286